Academia, Pennsylvania
Current Conditions -  °F | °C
As of 4:53 PM on Saturday 20 Dec 2014 (Local Time) from KUNV Reporting Station
Overcast Overcast  
Wind Chill: 28°   Ceiling: 2100
Heat Index: 28°   Visibility: 10mi
Dew Point: 21°   Wind: 0mph
Humidity: 74%   Direction: NA
Pressure: 30.22"   Gusts: NA
Location:  40.4991°N, 77.4687°W
Report Text: KUNV 202153Z 00000KT 10SM OVC021 M02/M06 A3022
Loading
Personal Weather Stations






























Interactive Weather Map New forecast layout! Learn more

10-Day Weather Forecast

Advertisements
Track Severe Weather on mobile